Time;durP1;ratioP1;P1;durP2;ratioP2;P2;SDS_P1;SDS_P2;PMS_P1;PMS_P2;Temp;Humidity;BMP_temperature;BMP_pressure;BME280_temperature;BME280_humidity;BME280_pressure;Samples;Min_cycle;Max_cycle;Signal;HPM_P1;HPM_P2
2023/04/23 00:01:40;;;;;;;2.43;1.70;;;13.00;99.90;;;;;;5037211;28;20473;-72
2023/04/23 00:04:08;;;;;;;2.30;1.90;;;13.00;99.90;;;;;;5029566;28;20484;-72
2023/04/23 00:06:35;;;;;;;2.47;2.10;;;13.00;99.90;;;;;;5048862;28;20506;-72
2023/04/23 00:09:03;;;;;;;4.40;3.50;;;13.00;99.90;;;;;;5048597;28;20467;-72
2023/04/23 00:11:30;;;;;;;3.10;1.93;;;13.00;99.90;;;;;;5041677;28;20574;-72
2023/04/23 00:13:58;;;;;;;3.37;2.07;;;13.10;99.90;;;;;;5037882;28;20828;-72
2023/04/23 00:16:25;;;;;;;2.33;1.73;;;13.10;99.90;;;;;;5040965;28;20464;-71
2023/04/23 00:18:53;;;;;;;2.33;2.13;;;13.10;99.90;;;;;;5035517;28;20468;-72
2023/04/23 00:21:20;;;;;;;2.30;2.10;;;13.10;99.90;;;;;;5042181;28;20459;-71
2023/04/23 00:23:46;;;;;;;1.80;1.70;;;13.20;99.90;;;;;;5042316;28;20567;-71
2023/04/23 00:26:13;;;;;;;2.77;1.83;;;13.20;99.90;;;;;;5036894;28;20459;-72
2023/04/23 00:28:40;;;;;;;1.87;1.67;;;13.20;99.90;;;;;;5037179;28;21255;-72
2023/04/23 00:31:07;;;;;;;2.50;1.83;;;13.20;99.90;;;;;;5045009;28;20479;-72
2023/04/23 00:33:34;;;;;;;3.83;2.00;;;13.30;99.90;;;;;;5037535;28;20515;-72
2023/04/23 00:36:02;;;;;;;3.40;1.90;;;13.30;99.90;;;;;;5037532;28;20870;-72
2023/04/23 00:38:28;;;;;;;1.50;1.33;;;13.30;99.90;;;;;;5032241;28;20460;-72
2023/04/23 00:40:55;;;;;;;1.83;1.73;;;13.20;99.90;;;;;;5040985;28;20464;-72
2023/04/23 00:43:22;;;;;;;1.57;1.40;;;13.10;99.90;;;;;;5038646;28;20859;-72
2023/04/23 00:45:50;;;;;;;2.63;1.73;;;13.10;99.90;;;;;;5063312;23;20491;-67
2023/04/23 00:48:17;;;;;;;1.60;1.50;;;13.10;99.90;;;;;;5050921;28;20462;-67
2023/04/23 00:50:44;;;;;;;2.23;1.60;;;13.10;99.90;;;;;;5062552;28;20525;-69
2023/04/23 00:53:12;;;;;;;3.13;2.33;;;13.10;99.90;;;;;;5061406;28;20486;-70
2023/04/23 00:55:39;;;;;;;5.93;2.37;;;13.10;99.90;;;;;;5050972;28;20459;-70
2023/04/23 00:58:06;;;;;;;2.80;1.93;;;13.10;99.90;;;;;;5050394;28;20463;-69
2023/04/23 01:00:37;;;;;;;2.20;1.93;;;13.10;99.90;;;;;;5050842;28;20502;-70
2023/04/23 01:03:05;;;;;;;1.60;1.50;;;13.10;99.90;;;;;;5050508;28;20893;-68
2023/04/23 01:05:32;;;;;;;2.23;1.70;;;13.10;99.90;;;;;;5050508;28;20478;-68
2023/04/23 01:07:59;;;;;;;1.70;1.53;;;13.10;99.90;;;;;;5050479;28;20471;-68
2023/04/23 01:10:27;;;;;;;2.43;2.00;;;13.00;99.90;;;;;;5050176;28;20474;-71
2023/04/23 01:12:57;;;;;;;1.57;1.20;;;13.00;99.90;;;;;;5049819;28;20480;-68
2023/04/23 01:15:23;;;;;;;2.50;1.53;;;13.00;99.90;;;;;;5050050;28;20466;-68
2023/04/23 01:17:50;;;;;;;1.80;1.40;;;13.00;99.90;;;;;;5050375;28;20491;-71
2023/04/23 01:20:17;;;;;;;2.10;1.73;;;13.00;99.90;;;;;;5049896;28;20465;-70
2023/04/23 01:22:45;;;;;;;2.20;1.80;;;13.00;99.90;;;;;;5049902;28;20482;-71
2023/04/23 01:25:12;;;;;;;1.70;1.47;;;13.10;99.90;;;;;;5050075;28;20467;-70
2023/04/23 01:27:39;;;;;;;1.50;1.40;;;13.10;99.90;;;;;;5050037;28;20471;-68
2023/04/23 01:30:08;;;;;;;1.90;1.50;;;13.10;99.90;;;;;;5050068;28;20913;-68
2023/04/23 01:32:35;;;;;;;1.60;1.50;;;13.00;99.90;;;;;;5049577;28;20490;-68
2023/04/23 01:35:03;;;;;;;1.40;1.30;;;13.00;99.90;;;;;;5050362;28;20492;-68
2023/04/23 01:37:30;;;;;;;1.70;1.40;;;12.90;99.90;;;;;;5049677;28;20466;-70
2023/04/23 01:39:59;;;;;;;4.80;2.10;;;12.90;99.90;;;;;;5050060;28;20463;-71
2023/04/23 01:42:26;;;;;;;1.60;1.50;;;13.00;99.90;;;;;;5049300;28;20843;-68
2023/04/23 01:44:53;;;;;;;3.03;2.03;;;13.00;99.90;;;;;;5050236;28;20848;-70
2023/04/23 01:47:20;;;;;;;1.70;1.60;;;13.00;99.90;;;;;;5049618;28;20467;-67
2023/04/23 01:49:47;;;;;;;2.60;1.40;;;12.90;99.90;;;;;;5050052;28;20463;-68
2023/04/23 01:52:14;;;;;;;2.10;1.70;;;12.90;99.90;;;;;;5049288;28;20479;-68
2023/04/23 01:54:41;;;;;;;1.50;1.40;;;12.90;99.90;;;;;;5053413;28;20853;-68
2023/04/23 01:57:10;;;;;;;1.57;1.47;;;12.90;99.90;;;;;;5053954;28;20456;-68
2023/04/23 01:59:37;;;;;;;1.73;1.57;;;12.80;99.90;;;;;;5053991;28;20471;-70
2023/04/23 02:02:04;;;;;;;1.70;1.40;;;12.80;99.90;;;;;;5053680;28;20479;-68
2023/04/23 02:04:31;;;;;;;2.23;2.03;;;12.80;99.90;;;;;;5053698;28;20462;-68
2023/04/23 02:06:57;;;;;;;2.30;1.67;;;12.70;99.90;;;;;;5054001;28;20463;-68
2023/04/23 02:09:24;;;;;;;1.50;1.40;;;12.80;99.90;;;;;;5053272;28;20459;-68
2023/04/23 02:11:51;;;;;;;1.57;1.30;;;12.70;99.90;;;;;;5053598;28;20536;-68
2023/04/23 02:14:19;;;;;;;1.83;1.67;;;12.60;99.90;;;;;;5053397;28;20486;-68
2023/04/23 02:16:46;;;;;;;1.60;1.40;;;12.70;99.90;;;;;;5053873;28;21019;-68
2023/04/23 02:19:14;;;;;;;1.87;1.47;;;12.70;99.90;;;;;;5053415;28;20459;-68
2023/04/23 02:21:41;;;;;;;1.83;1.43;;;12.70;99.90;;;;;;5053372;28;20467;-67
2023/04/23 02:24:08;;;;;;;1.97;1.77;;;12.70;99.90;;;;;;5053556;28;20487;-67
2023/04/23 02:26:34;;;;;;;1.63;1.53;;;12.60;99.90;;;;;;5037212;28;20464;-67
2023/04/23 02:29:01;;;;;;;1.80;1.67;;;12.60;99.90;;;;;;5053421;28;20462;-67
2023/04/23 02:31:29;;;;;;;1.57;1.47;;;12.60;99.90;;;;;;5052701;28;20485;-67
2023/04/23 02:33:56;;;;;;;1.60;1.50;;;12.60;99.90;;;;;;5053430;28;20869;-68
2023/04/23 02:36:22;;;;;;;1.90;1.27;;;12.50;99.90;;;;;;5053192;28;20463;-67
2023/04/23 02:38:50;;;;;;;1.40;1.30;;;12.50;99.90;;;;;;5053222;28;20466;-68
2023/04/23 02:41:16;;;;;;;1.80;1.37;;;12.50;99.90;;;;;;5052825;28;20834;-68
2023/04/23 02:43:43;;;;;;;1.77;1.67;;;12.50;99.90;;;;;;5053181;28;20489;-68
2023/04/23 02:46:10;;;;;;;2.50;1.73;;;12.40;99.90;;;;;;5053128;28;20463;-67
2023/04/23 02:48:40;;;;;;;1.70;1.47;;;12.40;99.90;;;;;;5053040;28;20517;-67
2023/04/23 02:51:08;;;;;;;2.40;2.20;;;12.30;99.90;;;;;;5053060;28;20486;-68
2023/04/23 02:53:35;;;;;;;1.70;1.60;;;12.20;99.90;;;;;;5052780;28;20855;-67
2023/04/23 02:56:02;;;;;;;1.30;1.20;;;12.10;99.90;;;;;;5053236;28;20676;-68
2023/04/23 02:58:30;;;;;;;1.80;1.70;;;11.90;99.90;;;;;;5052702;28;20470;-68
2023/04/23 03:00:57;;;;;;;1.40;1.30;;;11.80;99.90;;;;;;5052939;28;20829;-67
2023/04/23 03:03:30;;;;;;;1.67;1.58;;;11.70;99.90;;;;;;5052626;28;20570;-67
2023/04/23 03:05:59;;;;;;;1.35;1.10;;;11.70;99.90;;;;;;5052216;28;20225;-67
2023/04/23 03:08:26;;;;;;;1.73;1.63;;;11.60;99.90;;;;;;5052276;28;20201;-70
2023/04/23 03:10:52;;;;;;;1.92;1.45;;;11.50;99.90;;;;;;5052576;28;20216;-70
2023/04/23 03:13:19;;;;;;;1.75;1.65;;;11.50;99.90;;;;;;5052294;28;20221;-70
2023/04/23 03:15:46;;;;;;;1.40;1.30;;;11.60;99.90;;;;;;5052708;28;20786;-70
2023/04/23 03:18:12;;;;;;;1.85;1.65;;;11.60;99.90;;;;;;5051642;28;20224;-67
2023/04/23 03:20:39;;;;;;;1.60;1.50;;;11.60;99.90;;;;;;5052143;28;20201;-67
2023/04/23 03:23:08;;;;;;;1.50;1.40;;;11.60;99.90;;;;;;5052394;28;20217;-68
2023/04/23 03:25:35;;;;;;;2.25;1.25;;;11.60;99.90;;;;;;5052289;28;20723;-68
2023/04/23 03:28:01;;;;;;;1.40;1.30;;;11.60;99.90;;;;;;5052489;28;20205;-68
2023/04/23 03:30:29;;;;;;;1.35;1.25;;;11.60;99.90;;;;;;5049111;28;20219;-68
2023/04/23 03:32:56;;;;;;;3.40;1.70;;;11.50;99.90;;;;;;5051942;28;20299;-68
2023/04/23 03:35:23;;;;;;;1.95;1.65;;;11.50;99.90;;;;;;5052330;28;20463;-68
2023/04/23 03:37:50;;;;;;;2.15;1.40;;;11.50;99.90;;;;;;5051941;28;20668;-68
2023/04/23 03:40:19;;;;;;;1.70;1.60;;;11.50;99.90;;;;;;5052127;28;20200;-67
2023/04/23 03:42:46;;;;;;;1.60;1.42;;;11.40;99.90;;;;;;5051867;28;20479;-68
2023/04/23 03:45:13;;;;;;;1.60;1.40;;;11.40;99.90;;;;;;5052018;28;20668;-68
2023/04/23 03:47:40;;;;;;;1.80;1.52;;;11.30;99.90;;;;;;5051933;28;20284;-68
2023/04/23 03:50:08;;;;;;;2.33;1.90;;;11.30;99.90;;;;;;5052127;28;20564;-68
2023/04/23 03:52:35;;;;;;;1.70;1.60;;;11.30;99.90;;;;;;5051088;28;20224;-67
2023/04/23 03:55:02;;;;;;;3.55;2.03;;;11.30;99.90;;;;;;5052175;28;20663;-67
2023/04/23 03:57:30;;;;;;;1.40;1.30;;;11.20;99.90;;;;;;5051553;28;20304;-70
2023/04/23 03:59:57;;;;;;;1.40;1.30;;;11.20;99.90;;;;;;5051851;28;20201;-70
2023/04/23 04:02:24;;;;;;;2.22;2.00;;;11.20;99.90;;;;;;5051128;28;20225;-67
2023/04/23 04:04:51;;;;;;;3.45;2.28;;;11.30;99.90;;;;;;5051481;28;20197;-67
2023/04/23 04:07:18;;;;;;;1.83;1.65;;;11.30;99.90;;;;;;5051338;28;20209;-67
2023/04/23 04:09:45;;;;;;;2.63;1.40;;;11.30;99.90;;;;;;5051428;28;20197;-67
2023/04/23 04:12:12;;;;;;;1.50;1.40;;;11.30;99.90;;;;;;5051194;28;20746;-67
2023/04/23 04:14:40;;;;;;;2.97;1.83;;;11.20;99.90;;;;;;5051145;28;20193;-67
2023/04/23 04:17:07;;;;;;;1.45;1.35;;;11.20;99.90;;;;;;5050435;28;20216;-67
2023/04/23 04:19:35;;;;;;;1.63;1.38;;;11.20;99.90;;;;;;5051149;28;20208;-67
2023/04/23 04:22:02;;;;;;;2.67;1.80;;;11.20;99.90;;;;;;5051091;28;20559;-67
2023/04/23 04:24:31;;;;;;;3.30;1.75;;;11.20;99.90;;;;;;5051035;28;20292;-68
2023/04/23 04:26:58;;;;;;;1.55;1.40;;;11.10;99.90;;;;;;5051311;28;20683;-67
2023/04/23 04:29:25;;;;;;;1.52;1.40;;;11.10;99.90;;;;;;5050777;28;20205;-70
2023/04/23 04:31:53;;;;;;;2.00;1.50;;;11.00;99.90;;;;;;5050753;28;20274;-70
2023/04/23 04:34:20;;;;;;;1.52;1.42;;;11.00;99.90;;;;;;5050803;28;20236;-70
2023/04/23 04:36:47;;;;;;;2.70;1.70;;;10.90;99.90;;;;;;5050967;28;20201;-70
2023/04/23 04:39:14;;;;;;;1.55;1.45;;;10.90;99.90;;;;;;5051071;28;20237;-70
2023/04/23 04:41:41;;;;;;;2.10;1.55;;;10.90;99.90;;;;;;5050272;28;20202;-70
2023/04/23 04:44:08;;;;;;;1.50;1.23;;;10.90;99.90;;;;;;5050900;28;20221;-70
2023/04/23 04:46:39;;;;;;;1.60;1.50;;;10.90;99.90;;;;;;5050682;28;20205;-70
2023/04/23 04:49:07;;;;;;;2.10;1.50;;;10.90;99.90;;;;;;5050845;28;20901;-70
2023/04/23 04:51:34;;;;;;;2.55;1.50;;;10.90;99.90;;;;;;5050091;28;20205;-70
2023/04/23 04:54:00;;;;;;;2.40;1.70;;;10.90;99.90;;;;;;5050619;28;20217;-70
2023/04/23 04:56:27;;;;;;;1.90;1.58;;;10.80;99.90;;;;;;5050486;28;20467;-70
2023/04/23 04:58:54;;;;;;;1.60;1.48;;;10.80;99.90;;;;;;5050502;28;20204;-70
2023/04/23 05:01:21;;;;;;;1.30;1.20;;;10.80;99.90;;;;;;5050308;28;20671;-70
2023/04/23 05:03:48;;;;;;;1.83;1.45;;;10.80;99.90;;;;;;5050382;28;20324;-70
2023/04/23 05:06:16;;;;;;;2.00;1.50;;;10.80;99.90;;;;;;5050689;28;20201;-70
2023/04/23 05:08:46;;;;;;;1.80;1.60;;;10.70;99.90;;;;;;5050299;28;20193;-71
2023/04/23 05:11:13;;;;;;;1.43;1.33;;;10.80;99.90;;;;;;5050144;28;20200;-70
2023/04/23 05:13:40;;;;;;;2.30;1.33;;;10.80;99.90;;;;;;5050005;28;20486;-70
2023/04/23 05:16:07;;;;;;;2.90;1.90;;;10.90;99.90;;;;;;5048807;28;20459;-69
2023/04/23 05:18:34;;;;;;;1.92;1.70;;;11.00;99.90;;;;;;5050001;28;20460;-69
2023/04/23 05:21:00;;;;;;;1.55;1.45;;;11.00;99.90;;;;;;5049767;28;20575;-69
2023/04/23 05:23:28;;;;;;;1.98;1.77;;;11.10;99.90;;;;;;5050257;28;20217;-69
2023/04/23 05:25:57;;;;;;;1.90;1.65;;;11.20;99.90;;;;;;5050277;28;20208;-70
2023/04/23 05:28:24;;;;;;;2.85;1.63;;;11.30;99.90;;;;;;5049926;28;20205;-69
2023/04/23 05:30:51;;;;;;;1.67;1.57;;;11.40;99.90;;;;;;5049653;28;20206;-69
2023/04/23 05:33:18;;;;;;;1.55;1.17;;;11.40;99.90;;;;;;5049961;28;20483;-70
2023/04/23 05:35:45;;;;;;;1.70;1.60;;;11.40;99.90;;;;;;5050360;28;20196;-69
2023/04/23 05:38:11;;;;;;;2.30;1.58;;;11.50;99.90;;;;;;5050049;28;20212;-69
2023/04/23 05:40:39;;;;;;;2.53;1.40;;;11.50;99.90;;;;;;5050084;28;20197;-68
2023/04/23 05:43:06;;;;;;;1.60;1.50;;;11.60;99.90;;;;;;5049798;28;20217;-69
2023/04/23 05:45:33;;;;;;;2.25;1.75;;;11.70;99.90;;;;;;5049129;28;20216;-68
2023/04/23 05:48:00;;;;;;;1.42;1.33;;;11.70;99.90;;;;;;5049767;28;20201;-69
2023/04/23 05:50:26;;;;;;;1.50;1.27;;;11.80;99.90;;;;;;5049705;28;20211;-69
2023/04/23 05:52:53;;;;;;;1.55;1.10;;;11.70;99.90;;;;;;5049413;28;20220;-66
2023/04/23 05:55:20;;;;;;;1.30;1.13;;;11.70;99.90;;;;;;5043114;28;20274;-66
2023/04/23 05:57:48;;;;;;;1.10;1.00;;;11.70;99.90;;;;;;5037081;28;20821;-66
2023/04/23 06:00:15;;;;;;;1.30;1.20;;;11.70;99.90;;;;;;5049754;28;20197;-66
2023/04/23 06:02:42;;;;;;;2.37;1.50;;;11.70;99.90;;;;;;5045352;28;20303;-66
2023/04/23 06:05:10;;;;;;;2.60;1.30;;;11.70;99.90;;;;;;5040980;28;20946;-67
2023/04/23 06:07:36;;;;;;;2.10;1.20;;;11.70;99.90;;;;;;5048912;28;20284;-69
2023/04/23 06:10:04;;;;;;;1.30;1.20;;;11.70;99.90;;;;;;5038396;28;20212;-69
2023/04/23 06:12:31;;;;;;;1.42;1.10;;;11.80;99.90;;;;;;5048394;28;20221;-69
2023/04/23 06:14:59;;;;;;;0.95;0.80;;;11.90;99.90;;;;;;5048960;28;20228;-66
2023/04/23 06:17:26;;;;;;;1.65;1.13;;;11.80;99.90;;;;;;5044660;28;20549;-67
2023/04/23 06:19:53;;;;;;;1.00;0.90;;;11.90;99.90;;;;;;5049439;28;20201;-67
2023/04/23 06:22:19;;;;;;;1.65;1.10;;;12.00;99.90;;;;;;5048716;28;20204;-67
2023/04/23 06:24:46;;;;;;;1.20;1.00;;;12.10;99.90;;;;;;5049219;28;20201;-67
2023/04/23 06:27:13;;;;;;;1.05;0.95;;;12.10;99.90;;;;;;5049415;28;20689;-66
2023/04/23 06:29:40;;;;;;;1.20;1.00;;;12.20;99.90;;;;;;5049413;28;20296;-67
2023/04/23 06:32:08;;;;;;;1.30;1.00;;;12.30;99.90;;;;;;5048976;28;20201;-66
2023/04/23 06:34:35;;;;;;;1.00;0.90;;;12.30;99.90;;;;;;5047006;28;20201;-66
2023/04/23 06:37:01;;;;;;;1.00;0.90;;;12.40;99.90;;;;;;5049427;28;20197;-66
2023/04/23 06:39:28;;;;;;;1.30;1.20;;;12.40;99.90;;;;;;5048807;28;20815;-67
2023/04/23 06:41:55;;;;;;;1.03;0.93;;;12.40;99.90;;;;;;5052365;28;20220;-66
2023/04/23 06:44:22;;;;;;;2.22;1.30;;;12.50;99.90;;;;;;5052694;28;20475;-67
2023/04/23 06:49:18;;;;;;;0.90;0.77;;;12.40;99.90;;;;;;5003644;28;20222;-72
2023/04/23 06:51:44;;;;;;;1.13;1.00;;;12.40;99.90;;;;;;5014347;28;20210;-72
2023/04/23 06:54:11;;;;;;;1.03;0.90;;;12.50;99.90;;;;;;5016183;28;20705;-72
2023/04/23 06:56:38;;;;;;;2.30;1.20;;;12.60;99.90;;;;;;5014144;28;20469;-72
2023/04/23 06:59:05;;;;;;;1.10;1.00;;;12.70;99.90;;;;;;5015384;28;20461;-72
2023/04/23 07:01:32;;;;;;;1.30;1.00;;;12.90;99.90;;;;;;5015299;28;20500;-72
2023/04/23 07:03:58;;;;;;;2.37;0.97;;;13.00;99.90;;;;;;5015478;28;20980;-72
2023/04/23 07:06:27;;;;;;;1.20;1.00;;;13.00;99.90;;;;;;5014555;28;20552;-71
2023/04/23 07:08:54;;;;;;;1.00;0.90;;;13.00;99.90;;;;;;5015076;28;20493;-72
2023/04/23 07:11:21;;;;;;;1.00;0.90;;;13.30;99.90;;;;;;5014990;28;20564;-72
2023/04/23 07:13:47;;;;;;;1.50;1.30;;;13.50;99.90;;;;;;5014803;28;20483;-72
2023/04/23 07:16:14;;;;;;;1.20;1.10;;;13.60;99.90;;;;;;5014757;28;20465;-73
2023/04/23 07:18:41;;;;;;;1.10;0.90;;;13.70;99.90;;;;;;5015915;28;20497;-72
2023/04/23 07:21:07;;;;;;;1.13;0.90;;;14.00;99.90;;;;;;5014276;28;20464;-73
2023/04/23 07:23:36;;;;;;;2.60;1.00;;;14.20;99.90;;;;;;5014788;28;20484;-70
2023/04/23 07:26:02;;;;;;;1.00;0.80;;;14.50;99.90;;;;;;5014297;28;20468;-70
2023/04/23 07:28:29;;;;;;;1.10;1.00;;;14.60;99.90;;;;;;5014214;28;20461;-72
2023/04/23 07:30:56;;;;;;;1.20;0.90;;;14.80;99.90;;;;;;5011615;28;20885;-72
2023/04/23 07:33:24;;;;;;;1.00;0.90;;;15.00;99.90;;;;;;5014149;28;20489;-72
2023/04/23 07:35:51;;;;;;;1.13;0.93;;;14.70;99.90;;;;;;5013543;28;20462;-72
2023/04/23 07:38:18;;;;;;;0.93;0.83;;;14.70;99.90;;;;;;5013409;28;20487;-70
2023/04/23 07:40:46;;;;;;;1.80;1.20;;;14.50;99.90;;;;;;5012669;28;20461;-71
2023/04/23 07:43:13;;;;;;;1.20;0.90;;;14.60;99.90;;;;;;5013087;28;20477;-71
2023/04/23 07:45:40;;;;;;;2.20;1.27;;;14.70;99.90;;;;;;5011794;28;20473;-71
2023/04/23 07:48:07;;;;;;;1.30;1.00;;;14.70;99.90;;;;;;5012012;28;20476;-71
2023/04/23 07:50:33;;;;;;;2.40;1.00;;;14.60;99.90;;;;;;5011851;28;20877;-70
2023/04/23 07:53:00;;;;;;;1.17;1.07;;;14.40;99.90;;;;;;5010592;28;20496;-71
2023/04/23 07:55:27;;;;;;;1.40;1.30;;;14.40;99.90;;;;;;5012399;28;20476;-71
2023/04/23 07:57:55;;;;;;;1.30;1.10;;;14.40;99.90;;;;;;5011380;28;20465;-71
2023/04/23 08:00:22;;;;;;;1.33;1.20;;;14.40;99.90;;;;;;5012540;28;20839;-71
2023/04/23 08:02:50;;;;;;;1.63;1.03;;;14.20;99.90;;;;;;5011236;28;20485;-71
2023/04/23 08:05:17;;;;;;;2.43;1.40;;;14.20;99.90;;;;;;5011915;28;20473;-72
2023/04/23 08:07:44;;;;;;;1.40;1.30;;;14.30;99.90;;;;;;5012605;28;20465;-72
2023/04/23 08:10:10;;;;;;;1.73;1.10;;;14.40;99.90;;;;;;5010682;28;20465;-72
2023/04/23 08:12:37;;;;;;;1.30;1.20;;;14.60;99.90;;;;;;5010003;28;20508;-71
2023/04/23 08:15:06;;;;;;;1.73;1.20;;;14.70;99.90;;;;;;5012176;28;20879;-72
2023/04/23 08:17:33;;;;;;;1.03;0.93;;;14.60;99.90;;;;;;5006843;28;20465;-71
2023/04/23 08:20:00;;;;;;;1.20;1.00;;;14.40;99.90;;;;;;5010971;28;20473;-71
2023/04/23 08:22:26;;;;;;;1.50;1.30;;;14.70;99.90;;;;;;5011491;28;20485;-69
2023/04/23 08:24:54;;;;;;;1.10;0.80;;;15.20;99.90;;;;;;5011337;28;20458;-69
2023/04/23 08:27:21;;;;;;;1.13;0.90;;;15.20;99.90;;;;;;5012216;28;20457;-70
2023/04/23 08:29:50;;;;;;;1.60;1.13;;;15.20;99.90;;;;;;5012264;28;20564;-71
2023/04/23 08:32:19;;;;;;;1.40;1.20;;;15.20;99.90;;;;;;5012004;28;20497;-70
2023/04/23 08:34:46;;;;;;;1.30;1.00;;;15.40;99.90;;;;;;5012369;28;20493;-71
2023/04/23 08:37:13;;;;;;;1.60;1.20;;;15.70;99.90;;;;;;5012291;28;20469;-70
2023/04/23 08:39:40;;;;;;;1.23;1.13;;;16.30;99.90;;;;;;5012223;28;20461;-71
2023/04/23 08:42:18;;;;;;;1.10;1.00;;;17.00;99.90;;;;;;5013014;28;20461;-71
2023/04/23 08:44:47;;;;;;;2.43;1.30;;;17.60;99.90;;;;;;5014109;28;20528;-71
2023/04/23 08:47:18;;;;;;;1.10;1.00;;;18.30;99.90;;;;;;5011081;28;20472;-71
2023/04/23 08:49:49;;;;;;;2.63;1.40;;;18.50;99.90;;;;;;5011417;28;20956;-71
2023/04/23 08:52:19;;;;;;;1.40;1.27;;;18.70;99.90;;;;;;5015321;28;20473;-70
2023/04/23 08:54:49;;;;;;;1.63;1.30;;;18.00;99.90;;;;;;5015291;28;20477;-71
2023/04/23 08:57:17;;;;;;;2.10;0.90;;;18.10;99.90;;;;;;5010849;28;20851;-71
2023/04/23 08:59:46;;;;;;;1.73;1.07;;;17.60;99.90;;;;;;5009937;28;20500;-71
2023/04/23 09:02:14;;;;;;;1.20;1.10;;;17.70;99.90;;;;;;5009304;28;20524;-71
2023/04/23 09:04:44;;;;;;;1.40;1.13;;;18.00;99.90;;;;;;5009966;28;20479;-71
2023/04/23 09:07:14;;;;;;;1.10;0.93;;;17.70;99.90;;;;;;5004569;28;20835;-71
2023/04/23 09:09:41;;;;;;;1.33;1.00;;;17.80;99.90;;;;;;5009609;28;20543;-69
2023/04/23 09:12:09;;;;;;;1.37;1.20;;;17.70;99.90;;;;;;5009297;28;21082;-70
2023/04/23 09:14:37;;;;;;;1.43;1.10;;;17.50;99.90;;;;;;5010169;28;20481;-71
2023/04/23 09:17:04;;;;;;;1.90;1.20;;;18.00;99.90;;;;;;5009530;28;20481;-71
2023/04/23 09:19:31;;;;;;;1.40;1.27;;;18.50;99.90;;;;;;5010228;28;20469;-70
2023/04/23 09:22:00;;;;;;;1.40;1.30;;;18.20;99.90;;;;;;5009705;28;20898;-70
2023/04/23 09:24:29;;;;;;;1.20;1.10;;;18.20;99.90;;;;;;5009586;28;20485;-70
2023/04/23 09:26:58;;;;;;;1.10;1.00;;;18.00;99.90;;;;;;5010022;28;20465;-70
2023/04/23 09:29:25;;;;;;;1.27;1.10;;;17.60;99.90;;;;;;5009497;28;20465;-70
2023/04/23 09:31:55;;;;;;;1.60;1.00;;;17.50;99.90;;;;;;5009222;28;20465;-70
2023/04/23 09:34:24;;;;;;;1.30;1.17;;;17.90;99.90;;;;;;5010148;28;20484;-69
2023/04/23 09:36:53;;;;;;;1.30;0.93;;;18.10;99.90;;;;;;5009388;28;20469;-70
2023/04/23 09:39:23;;;;;;;1.10;0.90;;;18.60;99.90;;;;;;5009167;28;20508;-70
2023/04/23 09:41:52;;;;;;;1.03;0.90;;;18.90;99.90;;;;;;5012424;28;20471;-71
2023/04/23 09:44:21;;;;;;;1.50;1.40;;;19.10;99.70;;;;;;5008484;28;20517;-70
2023/04/23 09:46:48;;;;;;;1.73;1.47;;;19.40;98.90;;;;;;5010406;28;20848;-71
2023/04/23 09:49:15;;;;;;;1.20;1.10;;;19.70;97.90;;;;;;5009984;28;20563;-70
2023/04/23 09:51:44;;;;;;;1.40;1.30;;;19.80;97.60;;;;;;5008816;28;20906;-70
2023/04/23 09:54:12;;;;;;;1.40;1.20;;;20.20;97.40;;;;;;5010765;28;20496;-69
2023/04/23 09:56:41;;;;;;;1.20;1.10;;;20.10;95.50;;;;;;5009844;28;20473;-69
2023/04/23 09:59:25;;;;;;;1.47;1.20;;;19.60;95.60;;;;;;5009806;28;20465;-70
2023/04/23 10:01:52;;;;;;;1.83;1.30;;;20.10;95.90;;;;;;5009570;28;20460;-70
2023/04/23 10:04:20;;;;;;;1.17;1.03;;;20.00;96.60;;;;;;5010991;28;21058;-70
2023/04/23 10:06:48;;;;;;;2.07;1.50;;;20.30;96.10;;;;;;5010171;28;20472;-69
2023/04/23 10:09:15;;;;;;;1.67;1.17;;;21.10;95.30;;;;;;5009279;28;20472;-70
2023/04/23 10:11:45;;;;;;;1.40;1.30;;;22.10;96.20;;;;;;5009053;28;20501;-70
2023/04/23 10:14:12;;;;;;;2.70;1.10;;;23.10;94.00;;;;;;5008804;28;20869;-70
2023/04/23 10:16:40;;;;;;;1.30;1.00;;;23.60;93.90;;;;;;5013292;28;20554;-70
2023/04/23 10:19:12;;;;;;;1.40;1.30;;;23.30;92.70;;;;;;5013477;28;20469;-70
2023/04/23 10:21:40;;;;;;;1.10;0.80;;;22.90;93.80;;;;;;5012641;28;20468;-70
2023/04/23 10:24:10;;;;;;;1.50;1.20;;;21.20;94.10;;;;;;5013416;28;20596;-69
2023/04/23 10:26:39;;;;;;;1.30;1.00;;;19.30;96.00;;;;;;5012956;28;20465;-69
2023/04/23 10:29:13;;;;;;;1.40;1.23;;;19.00;97.40;;;;;;5012156;28;20887;-69
2023/04/23 10:31:41;;;;;;;2.77;1.40;;;19.10;96.80;;;;;;4998488;28;20477;-70
2023/04/23 10:34:10;;;;;;;1.27;1.17;;;19.70;96.40;;;;;;5013232;28;20485;-70
2023/04/23 10:36:37;;;;;;;1.40;1.30;;;20.40;97.10;;;;;;5012518;28;20539;-70
2023/04/23 10:39:07;;;;;;;1.00;0.90;;;20.20;95.50;;;;;;5012453;28;20500;-70
2023/04/23 10:41:38;;;;;;;1.30;1.20;;;19.80;96.00;;;;;;5013021;28;20457;-70
2023/04/23 10:44:06;;;;;;;1.23;1.13;;;19.60;96.00;;;;;;5013136;28;20485;-70
2023/04/23 10:46:34;;;;;;;1.00;0.90;;;20.10;97.70;;;;;;5013856;28;20478;-71
2023/04/23 10:49:13;;;;;;;1.70;1.40;;;21.00;96.30;;;;;;5013115;28;21047;-70
2023/04/23 10:51:41;;;;;;;1.57;1.13;;;21.10;95.50;;;;;;5011508;28;20469;-70
2023/04/23 10:54:10;;;;;;;1.10;1.00;;;21.40;95.20;;;;;;5011281;28;20568;-71
2023/04/23 10:56:39;;;;;;;1.40;1.07;;;21.60;94.60;;;;;;5014031;28;20449;-70
2023/04/23 10:59:08;;;;;;;1.00;0.87;;;21.70;95.10;;;;;;5015253;28;20467;-70
2023/04/23 11:01:36;;;;;;;1.40;1.17;;;21.70;94.10;;;;;;5014917;28;20496;-70
2023/04/23 11:04:22;;;;;;;1.50;1.20;;;22.40;94.50;;;;;;5014069;28;21005;-70
2023/04/23 11:06:54;;;;;;;1.20;1.10;;;23.30;93.70;;;;;;5014447;28;20492;-70
2023/04/23 11:09:38;;;;;;;1.30;1.20;;;23.50;94.90;;;;;;5014165;28;20507;-70
2023/04/23 11:12:07;;;;;;;1.33;1.13;;;23.80;94.20;;;;;;5012827;28;20994;-71
2023/04/23 11:14:36;;;;;;;1.00;0.90;;;24.20;91.60;;;;;;5013099;28;20493;-71
2023/04/23 11:17:05;;;;;;;2.43;0.90;;;24.80;92.70;;;;;;5013002;28;20489;-71
2023/04/23 11:19:35;;;;;;;1.13;1.03;;;24.70;91.90;;;;;;5012508;28;20472;-71
2023/04/23 11:22:04;;;;;;;1.33;1.20;;;24.20;90.70;;;;;;5005240;28;20474;-70
2023/04/23 11:24:35;;;;;;;1.00;0.87;;;23.60;91.30;;;;;;5013047;28;20927;-71
2023/04/23 11:27:05;;;;;;;1.20;0.90;;;22.70;91.40;;;;;;5013754;28;20458;-70
2023/04/23 11:29:33;;;;;;;1.13;1.03;;;21.60;91.90;;;;;;5013596;28;20461;-70
2023/04/23 11:32:00;;;;;;;1.07;0.97;;;20.90;93.30;;;;;;5013668;28;23436;-71
2023/04/23 11:34:29;;;;;;;1.13;1.03;;;20.50;93.10;;;;;;5013491;28;20551;-71
2023/04/23 11:36:59;;;;;;;0.90;0.80;;;20.40;93.70;;;;;;5012854;28;20470;-71
2023/04/23 11:39:27;;;;;;;1.00;0.90;;;20.30;93.10;;;;;;5012983;28;20464;-71
2023/04/23 11:41:54;;;;;;;1.47;1.00;;;20.10;94.00;;;;;;5012772;28;20461;-72
2023/04/23 11:44:22;;;;;;;1.23;1.00;;;19.90;93.90;;;;;;5013505;28;20844;-70
2023/04/23 11:46:50;;;;;;;1.30;1.10;;;19.70;94.40;;;;;;5013075;28;20458;-71
2023/04/23 11:49:19;;;;;;;1.63;1.10;;;20.20;94.90;;;;;;5013172;28;20526;-70
2023/04/23 11:51:48;;;;;;;1.30;1.17;;;20.40;95.20;;;;;;5010405;28;20499;-70
2023/04/23 11:54:15;;;;;;;1.07;0.97;;;19.90;94.10;;;;;;5012719;28;20496;-71
2023/04/23 11:56:43;;;;;;;2.17;1.30;;;19.50;93.90;;;;;;5015236;28;20507;-71
2023/04/23 11:59:11;;;;;;;1.23;1.13;;;19.30;95.30;;;;;;5013705;28;20463;-70
2023/04/23 12:01:42;;;;;;;1.40;1.10;;;20.10;95.30;;;;;;5013290;28;20556;-70
2023/04/23 12:04:11;;;;;;;1.17;0.97;;;21.50;93.30;;;;;;5013087;28;21006;-70
2023/04/23 12:06:39;;;;;;;1.07;0.97;;;22.10;92.80;;;;;;5013184;28;20457;-71
2023/04/23 12:09:09;;;;;;;1.20;1.10;;;21.50;92.20;;;;;;5012879;28;20469;-70
2023/04/23 12:11:36;;;;;;;1.37;1.20;;;21.10;94.30;;;;;;5014103;28;20466;-71
2023/04/23 12:14:02;;;;;;;1.27;0.93;;;20.80;93.30;;;;;;5012906;28;21520;-70
2023/04/23 12:16:40;;;;;;;1.00;0.90;;;20.70;93.50;;;;;;5012100;28;20891;-70
2023/04/23 12:19:09;;;;;;;1.10;1.00;;;20.60;94.60;;;;;;5012411;28;20461;-71
2023/04/23 12:21:46;;;;;;;1.07;0.97;;;20.50;94.20;;;;;;5012681;28;20465;-70
2023/04/23 12:24:15;;;;;;;1.23;1.13;;;20.30;94.80;;;;;;5004900;28;20530;-70
2023/04/23 12:26:43;;;;;;;1.50;1.00;;;20.20;94.80;;;;;;5012840;28;20461;-70
2023/04/23 12:29:12;;;;;;;1.63;1.13;;;20.40;94.30;;;;;;5012485;28;20466;-70
2023/04/23 12:31:39;;;;;;;1.30;1.07;;;21.00;94.50;;;;;;5011591;28;20569;-70
2023/04/23 12:34:07;;;;;;;1.30;1.03;;;22.20;94.20;;;;;;5011373;28;20473;-71
2023/04/23 12:36:36;;;;;;;1.40;0.93;;;23.00;94.70;;;;;;5086703;22;21124;-71
2023/04/23 12:39:38;;;;;;;1.23;0.97;;;24.00;94.30;;;;;;5101635;22;20509;-71
2023/04/23 12:42:08;;;;;;;1.67;1.17;;;25.10;93.20;;;;;;4987510;28;20877;-71
2023/04/23 12:44:37;;;;;;;1.10;1.00;;;25.80;91.70;;;;;;4988987;28;20457;-71
2023/04/23 12:47:06;;;;;;;1.00;0.90;;;25.10;89.70;;;;;;5081538;22;20585;-69
2023/04/23 12:49:34;;;;;;;1.33;1.07;;;24.80;89.60;;;;;;5030415;28;20560;-70
2023/04/23 12:52:03;;;;;;;1.20;1.10;;;24.10;90.10;;;;;;5030069;28;20990;-69
2023/04/23 12:54:31;;;;;;;1.20;1.10;;;23.50;88.90;;;;;;5009807;28;20493;-70